Time;durP1;ratioP1;P1;durP2;ratioP2;P2;SDS_P1;SDS_P2;PMS_P1;PMS_P2;Temp;Humidity;BMP_temperature;BMP_pressure;BME280_temperature;BME280_humidity;BME280_pressure;Samples;Min_cycle;Max_cycle;Signal;HPM_P1;HPM_P2
2022/09/23 00:00:24;;;;;;;6.05;5.55;;;;;;;;;;5054382;28;20115;-78
2022/09/23 00:02:50;;;;;;;5.57;5.07;;;;;;;;;;5053624;28;20473;-78
2022/09/23 00:05:16;;;;;;;6.20;5.57;;;;;;;;;;5036135;28;20033;-78
2022/09/23 00:07:43;;;;;;;5.57;4.97;;;;;;;;;;5033428;28;20477;-78
2022/09/23 00:10:10;;;;;;;5.63;5.13;;;;;;;;;;5033400;28;20080;-78
2022/09/23 00:12:36;;;;;;;5.68;4.95;;;;;;;;;;5033287;28;20053;-78
2022/09/23 00:15:02;;;;;;;6.60;6.00;;;;;;;;;;5033293;28;20049;-78
2022/09/23 00:17:31;;;;;;;6.35;5.75;;;;;;;;;;5033270;28;20038;-78
2022/09/23 00:19:58;;;;;;;5.60;5.10;;;;;;;;;;5033318;28;20045;-78
2022/09/23 00:22:24;;;;;;;6.15;5.55;;;;;;;;;;5033125;28;20037;-78
2022/09/23 00:24:50;;;;;;;5.70;5.10;;;;;;;;;;5032967;28;20051;-78
2022/09/23 00:27:16;;;;;;;5.65;5.10;;;;;;;;;;5033210;28;20121;-78
2022/09/23 00:29:42;;;;;;;6.47;5.93;;;;;;;;;;5033274;28;20032;-78
2022/09/23 00:32:08;;;;;;;6.25;5.53;;;;;;;;;;5033285;28;20036;-78
2022/09/23 00:34:34;;;;;;;6.50;5.85;;;;;;;;;;5035193;28;20550;-78
2022/09/23 00:37:00;;;;;;;6.10;5.50;;;;;;;;;;5037119;28;20038;-78
2022/09/23 00:39:26;;;;;;;5.93;5.32;;;;;;;;;;5036989;28;20385;-78
2022/09/23 00:41:53;;;;;;;5.95;5.45;;;;;;;;;;5036717;28;20112;-78
2022/09/23 00:44:38;;;;;;;6.38;5.78;;;;;;;;;;5036593;28;20037;-78
2022/09/23 00:47:04;;;;;;;6.03;5.53;;;;;;;;;;5036705;28;20116;-78
2022/09/23 00:49:31;;;;;;;6.78;5.68;;;;;;;;;;5036278;28;20075;-78
2022/09/23 00:52:06;;;;;;;6.65;6.05;;;;;;;;;;5036438;28;20091;-79
2022/09/23 00:54:32;;;;;;;5.50;5.00;;;;;;;;;;5036714;28;20116;-78
2022/09/23 00:56:59;;;;;;;5.97;5.43;;;;;;;;;;5037576;28;20114;-78
2022/09/23 00:59:27;;;;;;;6.78;5.95;;;;;;;;;;5037451;28;20393;-78
2022/09/23 01:01:55;;;;;;;7.75;5.90;;;;;;;;;;5036497;28;20040;-78
2022/09/23 01:04:23;;;;;;;6.50;5.90;;;;;;;;;;5036128;28;20573;-78
2022/09/23 01:06:49;;;;;;;6.85;6.25;;;;;;;;;;5035130;28;20033;-78
2022/09/23 01:09:15;;;;;;;5.55;5.05;;;;;;;;;;5036159;28;20033;-78
2022/09/23 01:12:00;;;;;;;6.18;5.57;;;;;;;;;;5036270;28;20038;-78
2022/09/23 01:14:45;;;;;;;5.50;5.03;;;;;;;;;;5036462;28;20488;-78
2022/09/23 01:17:11;;;;;;;6.10;5.57;;;;;;;;;;5036199;28;20116;-78
2022/09/23 01:19:42;;;;;;;5.97;5.47;;;;;;;;;;5036258;28;20455;-78
2022/09/23 01:22:12;;;;;;;6.80;5.45;;;;;;;;;;5035780;28;20045;-78
2022/09/23 01:24:47;;;;;;;6.18;5.57;;;;;;;;;;5035757;28;20045;-78
2022/09/23 01:27:31;;;;;;;6.00;5.28;;;;;;;;;;5036001;28;20045;-78
2022/09/23 01:30:06;;;;;;;6.35;5.75;;;;;;;;;;5035567;28;20029;-78
2022/09/23 01:32:32;;;;;;;6.07;5.57;;;;;;;;;;5035848;28;20048;-78
2022/09/23 01:35:10;;;;;;;6.35;5.75;;;;;;;;;;5035827;28;20092;-78
2022/09/23 01:37:54;;;;;;;6.10;5.15;;;;;;;;;;5035803;28;20057;-78
2022/09/23 01:40:24;;;;;;;5.68;5.05;;;;;;;;;;5035634;28;20031;-78
2022/09/23 01:42:58;;;;;;;6.18;5.57;;;;;;;;;;5034141;28;20484;-78
2022/09/23 01:45:29;;;;;;;5.70;5.20;;;;;;;;;;5034281;28;20034;-78
2022/09/23 01:48:00;;;;;;;6.15;5.55;;;;;;;;;;5035600;28;20029;-78
2022/09/23 01:50:57;;;;;;;5.88;5.38;;;;;;;;;;5035731;28;20439;-77
2022/09/23 01:53:42;;;;;;;6.47;5.93;;;;;;;;;;5035544;28;20084;-77
2022/09/23 01:56:17;;;;;;;6.13;5.53;;;;;;;;;;5035685;28;20048;-78
2022/09/23 01:58:49;;;;;;;6.07;5.57;;;;;;;;;;5035442;28;20171;-78
2022/09/23 02:01:19;;;;;;;8.35;6.10;;;;;;;;;;5030978;28;20586;-78
2022/09/23 02:03:51;;;;;;;6.25;5.65;;;;;;;;;;5037690;28;20116;-78
2022/09/23 02:06:22;;;;;;;5.35;4.95;;;;;;;;;;5035705;28;20037;-78
2022/09/23 02:08:59;;;;;;;6.90;6.20;;;;;;;;;;5035187;28;20025;-78
2022/09/23 02:11:25;;;;;;;6.80;6.20;;;;;;;;;;5035241;28;20029;-78
2022/09/23 02:13:51;;;;;;;6.25;5.68;;;;;;;;;;5034820;28;20381;-78
2022/09/23 02:16:23;;;;;;;6.85;6.13;;;;;;;;;;5035036;28;20095;-78
2022/09/23 02:18:53;;;;;;;6.53;5.85;;;;;;;;;;5035118;28;20485;-78
2022/09/23 02:21:20;;;;;;;6.68;5.97;;;;;;;;;;5035111;28;20076;-78
2022/09/23 02:23:52;;;;;;;6.80;6.20;;;;;;;;;;5034685;28;20117;-78
2022/09/23 02:26:41;;;;;;;8.50;6.32;;;;;;;;;;5015173;28;20077;-78
2022/09/23 02:29:27;;;;;;;6.65;6.00;;;;;;;;;;5007037;28;20034;-78
2022/09/23 02:32:02;;;;;;;7.07;6.38;;;;;;;;;;5015202;28;20038;-78
2022/09/23 02:34:49;;;;;;;6.43;5.82;;;;;;;;;;5015156;28;20098;-78
2022/09/23 02:37:19;;;;;;;6.63;6.00;;;;;;;;;;5015231;28;20084;-78
2022/09/23 02:39:54;;;;;;;6.22;5.63;;;;;;;;;;5015066;28;20045;-78
2022/09/23 02:42:22;;;;;;;6.80;6.20;;;;;;;;;;5015008;28;20046;-78
2022/09/23 02:44:49;;;;;;;6.95;6.35;;;;;;;;;;5014698;28;20033;-78
2022/09/23 02:47:16;;;;;;;6.75;6.15;;;;;;;;;;5014960;28;20477;-79
2022/09/23 02:49:42;;;;;;;7.05;6.45;;;;;;;;;;5014713;28;20096;-78
2022/09/23 02:52:10;;;;;;;6.70;6.05;;;;;;;;;;5014776;28;20373;-78
2022/09/23 02:54:37;;;;;;;6.82;6.22;;;;;;;;;;4997614;28;20446;-78
2022/09/23 02:57:05;;;;;;;7.65;6.43;;;;;;;;;;4996793;28;20038;-78
2022/09/23 02:59:31;;;;;;;7.47;6.78;;;;;;;;;;5014205;28;20037;-78
2022/09/23 03:02:16;;;;;;;6.75;6.15;;;;;;;;;;5014575;28;20160;-78
2022/09/23 03:04:42;;;;;;;7.10;6.50;;;;;;;;;;5013305;28;20459;-78
2022/09/23 03:07:08;;;;;;;6.28;5.68;;;;;;;;;;5014427;28;20048;-78
2022/09/23 03:09:53;;;;;;;7.55;6.85;;;;;;;;;;5015228;28;20389;-78
2022/09/23 03:12:31;;;;;;;7.55;6.85;;;;;;;;;;5015099;28;20026;-78
2022/09/23 03:14:57;;;;;;;7.13;6.32;;;;;;;;;;5014076;28;20038;-78
2022/09/23 03:17:29;;;;;;;7.68;6.97;;;;;;;;;;5014413;28;20045;-78
2022/09/23 03:19:58;;;;;;;8.02;7.03;;;;;;;;;;5014254;28;20624;-78
2022/09/23 03:22:27;;;;;;;7.15;6.45;;;;;;;;;;5014593;28;20084;-78
2022/09/23 03:24:55;;;;;;;6.70;6.10;;;;;;;;;;5013917;28;20566;-79
2022/09/23 03:27:25;;;;;;;7.22;6.53;;;;;;;;;;5014370;28;20485;-78
2022/09/23 03:29:53;;;;;;;6.57;5.97;;;;;;;;;;5013903;28;20033;-78
2022/09/23 03:32:20;;;;;;;7.15;6.00;;;;;;;;;;5014115;28;20048;-77
2022/09/23 03:34:48;;;;;;;7.45;6.82;;;;;;;;;;5013999;28;20034;-78
2022/09/23 03:37:20;;;;;;;7.20;6.10;;;;;;;;;;5014039;28;20037;-78
2022/09/23 03:39:50;;;;;;;7.93;6.20;;;;;;;;;;5013665;28;20026;-78
2022/09/23 03:42:19;;;;;;;6.70;5.60;;;;;;;;;;5013835;28;20088;-78
2022/09/23 03:44:46;;;;;;;6.38;5.57;;;;;;;;;;5013753;28;20117;-78
2022/09/23 03:47:13;;;;;;;7.38;6.63;;;;;;;;;;5013972;28;20030;-78
2022/09/23 03:49:40;;;;;;;5.93;5.32;;;;;;;;;;5013702;28;20030;-78
2022/09/23 03:52:06;;;;;;;7.28;6.57;;;;;;;;;;5013879;28;20030;-78
2022/09/23 03:54:32;;;;;;;6.72;6.13;;;;;;;;;;5013274;28;20045;-78
2022/09/23 03:57:00;;;;;;;6.43;5.68;;;;;;;;;;5013518;28;20038;-77
2022/09/23 03:59:28;;;;;;;7.97;7.18;;;;;;;;;;5013689;28;20121;-78
2022/09/23 04:01:54;;;;;;;7.43;6.72;;;;;;;;;;5013534;28;20033;-78
2022/09/23 04:04:26;;;;;;;8.27;7.40;;;;;;;;;;5013378;28;20033;-78
2022/09/23 04:06:56;;;;;;;7.05;6.38;;;;;;;;;;5013309;28;20476;-78
2022/09/23 04:09:23;;;;;;;8.45;7.28;;;;;;;;;;5014245;28;20038;-78
2022/09/23 04:11:49;;;;;;;7.72;6.80;;;;;;;;;;5016490;28;20061;-78
2022/09/23 04:14:15;;;;;;;7.57;6.88;;;;;;;;;;5017711;28;20030;-78
2022/09/23 04:16:41;;;;;;;6.70;6.03;;;;;;;;;;5019771;28;20107;-78
2022/09/23 04:19:08;;;;;;;7.40;6.70;;;;;;;;;;5017909;28;20030;-78
2022/09/23 04:21:38;;;;;;;7.72;7.03;;;;;;;;;;5016274;28;20551;-78
2022/09/23 04:24:04;;;;;;;16.85;12.82;;;;;;;;;;5017227;28;20038;-78
2022/09/23 04:26:31;;;;;;;84.72;58.70;;;;;;;;;;5036513;28;20132;-78
2022/09/23 04:28:57;;;;;;;10.73;9.40;;;;;;;;;;5037032;28;20038;-79
2022/09/23 04:31:23;;;;;;;8.05;6.65;;;;;;;;;;5036718;28;20043;-79
2022/09/23 04:33:50;;;;;;;7.18;6.45;;;;;;;;;;5036894;28;20104;-79
2022/09/23 04:36:16;;;;;;;7.07;6.40;;;;;;;;;;5036563;28;20037;-79
2022/09/23 04:38:45;;;;;;;17.80;12.55;;;;;;;;;;5036816;28;20535;-79
2022/09/23 04:41:12;;;;;;;8.40;7.60;;;;;;;;;;5036513;28;20064;-79
2022/09/23 04:43:39;;;;;;;9.60;8.10;;;;;;;;;;5036297;28;20100;-79
2022/09/23 04:46:05;;;;;;;10.88;7.90;;;;;;;;;;5036646;28;20388;-78
2022/09/23 04:48:32;;;;;;;7.78;7.07;;;;;;;;;;5036538;28;20559;-78
2022/09/23 04:51:09;;;;;;;8.38;6.88;;;;;;;;;;5036357;28;20114;-79
2022/09/23 04:53:36;;;;;;;6.82;6.13;;;;;;;;;;5036403;28;20129;-79
2022/09/23 04:56:12;;;;;;;7.38;6.43;;;;;;;;;;5036374;28;20033;-79
2022/09/23 04:58:39;;;;;;;7.55;6.75;;;;;;;;;;5035981;28;20026;-78
2022/09/23 05:01:24;;;;;;;7.90;7.10;;;;;;;;;;5036460;28;20041;-78
2022/09/23 05:03:50;;;;;;;9.48;8.18;;;;;;;;;;5036212;28;20036;-79
2022/09/23 05:06:16;;;;;;;7.18;6.55;;;;;;;;;;5036095;28;20057;-78
2022/09/23 05:08:50;;;;;;;10.70;7.65;;;;;;;;;;5035914;28;20104;-79
2022/09/23 05:11:17;;;;;;;9.98;7.93;;;;;;;;;;5036007;28;20034;-79
2022/09/23 05:13:43;;;;;;;7.78;6.97;;;;;;;;;;5035870;28;20034;-78
2022/09/23 05:16:11;;;;;;;10.00;8.25;;;;;;;;;;5035576;28;20036;-79
2022/09/23 05:18:42;;;;;;;8.25;6.63;;;;;;;;;;5035940;28;20097;-79
2022/09/23 05:21:13;;;;;;;6.47;5.70;;;;;;;;;;5035724;28;20030;-79
2022/09/23 05:23:40;;;;;;;8.07;7.30;;;;;;;;;;5035822;28;20030;-79
2022/09/23 05:26:07;;;;;;;7.65;6.75;;;;;;;;;;5035478;28;20128;-80
2022/09/23 05:28:34;;;;;;;8.13;7.25;;;;;;;;;;5035580;28;20034;-79
2022/09/23 05:31:04;;;;;;;7.80;6.95;;;;;;;;;;5035284;28;20033;-80
2022/09/23 05:33:30;;;;;;;7.32;6.63;;;;;;;;;;5051221;28;20059;-78
2022/09/23 05:35:56;;;;;;;8.93;7.20;;;;;;;;;;5036358;28;20034;-79
2022/09/23 05:38:23;;;;;;;6.75;6.15;;;;;;;;;;5038210;28;20031;-79
2022/09/23 05:40:59;;;;;;;6.68;5.95;;;;;;;;;;5028690;28;20061;-79
2022/09/23 05:43:25;;;;;;;6.97;6.22;;;;;;;;;;5024944;28;20104;-77
2022/09/23 05:45:52;;;;;;;7.00;6.13;;;;;;;;;;5029919;28;20042;-79
2022/09/23 05:48:18;;;;;;;6.38;5.78;;;;;;;;;;5030764;28;20528;-78
2022/09/23 05:50:51;;;;;;;6.28;5.60;;;;;;;;;;5032802;28;20034;-78
2022/09/23 05:53:17;;;;;;;8.57;6.63;;;;;;;;;;5033117;28;20097;-78
2022/09/23 05:55:44;;;;;;;7.22;5.78;;;;;;;;;;5033092;28;20037;-78
2022/09/23 05:58:10;;;;;;;18.95;12.27;;;;;;;;;;5032743;28;20128;-78
2022/09/23 06:00:38;;;;;;;8.82;7.25;;;;;;;;;;5032101;28;20037;-78
2022/09/23 06:03:05;;;;;;;8.45;6.80;;;;;;;;;;5039294;28;20029;-78
2022/09/23 06:05:31;;;;;;;8.52;6.75;;;;;;;;;;5052279;28;20190;-78
2022/09/23 06:07:57;;;;;;;7.43;5.93;;;;;;;;;;5053031;28;20028;-79
2022/09/23 06:10:23;;;;;;;7.43;5.93;;;;;;;;;;5052441;28;20041;-78
2022/09/23 06:12:50;;;;;;;6.82;6.13;;;;;;;;;;5050136;28;20104;-78
2022/09/23 06:15:16;;;;;;;8.23;6.65;;;;;;;;;;5032323;28;20088;-78
2022/09/23 06:17:42;;;;;;;8.25;5.80;;;;;;;;;;5032346;28;20205;-79
2022/09/23 06:20:08;;;;;;;5.97;5.38;;;;;;;;;;5032891;28;20029;-80
2022/09/23 06:22:34;;;;;;;7.00;6.22;;;;;;;;;;5029746;28;20512;-79
2022/09/23 06:25:00;;;;;;;5.25;4.75;;;;;;;;;;5032027;28;20552;-79
2022/09/23 06:27:26;;;;;;;5.85;5.35;;;;;;;;;;5031868;28;20029;-79
2022/09/23 06:29:52;;;;;;;4.57;4.00;;;;;;;;;;5031858;28;20038;-78
2022/09/23 06:32:19;;;;;;;6.07;5.07;;;;;;;;;;5030891;28;20072;-78
2022/09/23 06:34:45;;;;;;;6.53;5.93;;;;;;;;;;5031967;28;20033;-78
2022/09/23 06:37:11;;;;;;;5.97;5.38;;;;;;;;;;5031781;28;20038;-77
2022/09/23 06:39:37;;;;;;;9.73;5.93;;;;;;;;;;5033779;28;20046;-79
2022/09/23 06:42:05;;;;;;;5.93;5.43;;;;;;;;;;5032220;28;20052;-78
2022/09/23 06:44:31;;;;;;;6.78;5.43;;;;;;;;;;5028780;28;20055;-78
2022/09/23 06:46:57;;;;;;;5.93;5.38;;;;;;;;;;5031831;28;20365;-78
2022/09/23 06:49:23;;;;;;;7.25;5.93;;;;;;;;;;5030714;28;20032;-79
2022/09/23 06:51:49;;;;;;;5.70;5.10;;;;;;;;;;5031532;28;20029;-79
2022/09/23 06:54:15;;;;;;;5.28;4.78;;;;;;;;;;5032031;28;20114;-79
2022/09/23 06:56:43;;;;;;;5.88;4.70;;;;;;;;;;5030842;28;20036;-79
2022/09/23 06:59:11;;;;;;;5.55;4.97;;;;;;;;;;5030699;28;20156;-78
2022/09/23 07:01:38;;;;;;;5.32;4.68;;;;;;;;;;5024109;28;20040;-79
2022/09/23 07:04:04;;;;;;;4.88;4.40;;;;;;;;;;5028716;28;20037;-80
2022/09/23 07:06:30;;;;;;;4.43;3.75;;;;;;;;;;5029440;28;20097;-79
2022/09/23 07:08:56;;;;;;;5.90;4.10;;;;;;;;;;5010237;28;20061;-80
2022/09/23 07:11:22;;;;;;;5.20;4.40;;;;;;;;;;5015805;28;21769;-78
2022/09/23 07:13:49;;;;;;;4.00;3.70;;;;;;;;;;5030662;28;20044;-77
2022/09/23 07:16:15;;;;;;;4.10;3.80;;;;;;;;;;5030286;28;20109;-79
2022/09/23 07:18:46;;;;;;;4.85;4.05;;;;;;;;;;5029980;28;20049;-78
2022/09/23 07:21:18;;;;;;;4.80;4.28;;;;;;;;;;5029747;28;20511;-78
2022/09/23 07:23:45;;;;;;;4.70;3.97;;;;;;;;;;5029759;28;20048;-83
2022/09/23 07:26:19;;;;;;;4.38;4.00;;;;;;;;;;5031079;28;20095;-79
2022/09/23 07:28:45;;;;;;;4.45;4.05;;;;;;;;;;5031188;28;20029;-79
2022/09/23 07:31:13;;;;;;;4.95;4.10;;;;;;;;;;5030147;28;20034;-79
2022/09/23 07:33:42;;;;;;;4.38;3.60;;;;;;;;;;5031101;28;20025;-79
2022/09/23 07:36:18;;;;;;;4.50;4.10;;;;;;;;;;5031366;28;20392;-76
2022/09/23 07:38:46;;;;;;;3.95;3.55;;;;;;;;;;5026926;28;20037;-79
2022/09/23 07:41:13;;;;;;;4.45;3.40;;;;;;;;;;5048326;28;20412;-78
2022/09/23 07:43:40;;;;;;;4.60;3.72;;;;;;;;;;5039711;28;20042;-78
2022/09/23 07:46:07;;;;;;;3.53;3.22;;;;;;;;;;5030397;28;20041;-78
2022/09/23 07:48:34;;;;;;;3.85;3.55;;;;;;;;;;5031044;28;20060;-79
2022/09/23 07:51:05;;;;;;;4.03;3.58;;;;;;;;;;5029739;28;20036;-79
2022/09/23 07:53:32;;;;;;;4.70;4.30;;;;;;;;;;5031152;28;20113;-80
2022/09/23 07:55:58;;;;;;;4.45;4.05;;;;;;;;;;5030845;28;20037;-79
2022/09/23 07:58:25;;;;;;;4.22;3.83;;;;;;;;;;5030615;28;20029;-80
2022/09/23 08:00:52;;;;;;;4.40;3.42;;;;;;;;;;5030976;28;20033;-81
2022/09/23 08:03:19;;;;;;;4.50;4.00;;;;;;;;;;5030920;28;20033;-79
2022/09/23 08:05:45;;;;;;;4.15;3.80;;;;;;;;;;5030305;28;20565;-80
2022/09/23 08:08:12;;;;;;;3.63;3.33;;;;;;;;;;5030988;28;20060;-80
2022/09/23 08:10:39;;;;;;;4.18;3.80;;;;;;;;;;5038678;28;20036;-81
2022/09/23 08:13:05;;;;;;;4.63;3.85;;;;;;;;;;5038222;28;20037;-81
2022/09/23 08:15:31;;;;;;;4.05;3.60;;;;;;;;;;5038470;28;20391;-80
2022/09/23 08:17:58;;;;;;;3.80;3.50;;;;;;;;;;5040781;28;20038;-79
2022/09/23 08:23:14;;;;;;;2.92;2.70;;;;;;;;;;5025647;28;20076;-79
2022/09/23 08:25:41;;;;;;;4.60;3.55;;;;;;;;;;5039966;28;20042;-78
2022/09/23 08:28:07;;;;;;;3.20;2.90;;;;;;;;;;5041098;28;20148;-79
2022/09/23 08:30:33;;;;;;;3.47;3.15;;;;;;;;;;5038553;28;20029;-78
2022/09/23 08:32:59;;;;;;;3.63;3.20;;;;;;;;;;5035868;28;20451;-79
2022/09/23 08:35:26;;;;;;;3.63;3.33;;;;;;;;;;5040610;28;20385;-78
2022/09/23 08:37:52;;;;;;;4.50;3.30;;;;;;;;;;5035020;28;20025;-77
2022/09/23 08:40:18;;;;;;;3.70;2.83;;;;;;;;;;5037328;28;20033;-77
2022/09/23 08:42:45;;;;;;;4.43;4.03;;;;;;;;;;5040259;28;20040;-78
2022/09/23 08:45:22;;;;;;;3.72;3.40;;;;;;;;;;5040686;28;20128;-77
2022/09/23 08:48:10;;;;;;;3.25;2.92;;;;;;;;;;5037777;28;20507;-82
2022/09/23 08:50:41;;;;;;;3.75;2.67;;;;;;;;;;5039085;28;20037;-80
2022/09/23 08:53:19;;;;;;;3.08;2.83;;;;;;;;;;5039094;28;20092;-79
2022/09/23 08:55:50;;;;;;;3.67;3.30;;;;;;;;;;5040484;28;20049;-78
2022/09/23 08:58:20;;;;;;;3.25;2.95;;;;;;;;;;5037962;28;20120;-77
2022/09/23 09:01:06;;;;;;;3.38;3.08;;;;;;;;;;5042444;28;20044;-80
2022/09/23 09:03:40;;;;;;;3.20;2.90;;;;;;;;;;5041714;28;20112;-78
2022/09/23 09:06:07;;;;;;;3.10;2.70;;;;;;;;;;5037156;28;20091;-79
2022/09/23 09:08:36;;;;;;;3.03;2.80;;;;;;;;;;5044681;28;20043;-80
2022/09/23 09:11:02;;;;;;;4.57;2.75;;;;;;;;;;5043728;28;20079;-78
2022/09/23 09:13:33;;;;;;;2.70;2.50;;;;;;;;;;5042167;28;20056;-79
2022/09/23 09:16:10;;;;;;;3.47;2.97;;;;;;;;;;5041155;28;20068;-78
2022/09/23 09:18:42;;;;;;;2.85;2.58;;;;;;;;;;5039742;28;20477;-80
2022/09/23 09:21:13;;;;;;;3.33;3.03;;;;;;;;;;5022646;28;20049;-79
2022/09/23 09:23:52;;;;;;;3.25;2.40;;;;;;;;;;5039824;28;20036;-77
2022/09/23 09:26:22;;;;;;;4.30;4.00;;;;;;;;;;5036510;28;20103;-76
2022/09/23 09:28:51;;;;;;;3.42;3.13;;;;;;;;;;5042337;28;20105;-80
2022/09/23 09:31:36;;;;;;;2.42;2.22;;;;;;;;;;5033674;28;20025;-75
2022/09/23 09:34:10;;;;;;;3.28;2.47;;;;;;;;;;5036015;28;20526;-80
2022/09/23 09:36:44;;;;;;;3.45;3.15;;;;;;;;;;5042257;28;20040;-80
2022/09/23 09:39:11;;;;;;;3.50;2.50;;;;;;;;;;5036251;28;20120;-78
2022/09/23 09:41:40;;;;;;;3.47;3.10;;;;;;;;;;5034486;28;20835;-79
2022/09/23 09:44:23;;;;;;;3.70;2.83;;;;;;;;;;5032960;28;20041;-79
2022/09/23 09:46:55;;;;;;;3.15;2.78;;;;;;;;;;5032997;28;20080;-78
2022/09/23 09:49:22;;;;;;;4.05;3.28;;;;;;;;;;5032861;28;20488;-78
2022/09/23 09:51:48;;;;;;;3.65;3.20;;;;;;;;;;5027144;28;20046;-77
2022/09/23 09:54:25;;;;;;;3.10;2.53;;;;;;;;;;5030859;28;20044;-78
2022/09/23 09:56:52;;;;;;;3.08;2.78;;;;;;;;;;5029790;28;20515;-78
2022/09/23 09:59:23;;;;;;;3.70;2.60;;;;;;;;;;5030999;28;20042;-77
2022/09/23 10:01:50;;;;;;;3.55;2.72;;;;;;;;;;5030927;28;20038;-76
2022/09/23 10:04:23;;;;;;;3.08;2.58;;;;;;;;;;5031167;28;20041;-77
2022/09/23 10:07:08;;;;;;;2.92;2.63;;;;;;;;;;5024633;28;20096;-72
2022/09/23 10:09:36;;;;;;;2.60;2.40;;;;;;;;;;5033493;28;20498;-76
2022/09/23 10:12:11;;;;;;;2.75;2.55;;;;;;;;;;5041889;28;20400;-77
2022/09/23 10:14:38;;;;;;;5.00;4.28;;;;;;;;;;5039335;28;20037;-79
2022/09/23 10:17:05;;;;;;;7.93;5.15;;;;;;;;;;5032392;28;20048;-77
2022/09/23 10:19:32;;;;;;;5.65;3.53;;;;;;;;;;5026495;28;20038;-77
2022/09/23 10:22:00;;;;;;;2.10;1.90;;;;;;;;;;5031288;28;20034;-78
2022/09/23 10:24:29;;;;;;;1.83;1.73;;;;;;;;;;5032016;28;20638;-77
2022/09/23 10:27:00;;;;;;;3.40;3.03;;;;;;;;;;5031880;28;20417;-78
2022/09/23 10:29:32;;;;;;;6.25;4.13;;;;;;;;;;5031920;28;20026;-79
2022/09/23 10:32:21;;;;;;;2.58;2.38;;;;;;;;;;5031884;28;20026;-77
2022/09/23 10:34:51;;;;;;;2.13;1.92;;;;;;;;;;5028979;28;20033;-78
2022/09/23 10:37:21;;;;;;;2.88;2.58;;;;;;;;;;5032259;28;20060;-78
2022/09/23 10:48:24;;;;;;;3.25;2.85;;;;;;;;;;5039158;28;20051;-78
2022/09/23 10:50:55;;;;;;;3.22;2.70;;;;;;;;;;5040167;28;20479;-80
2022/09/23 10:53:31;;;;;;;3.35;3.05;;;;;;;;;;5038962;28;20037;-78
2022/09/23 10:56:10;;;;;;;3.03;2.72;;;;;;;;;;5039777;28;20076;-76
2022/09/23 10:58:46;;;;;;;3.95;2.80;;;;;;;;;;5024276;28;20025;-77
2022/09/23 11:01:15;;;;;;;2.90;2.60;;;;;;;;;;5039314;28;20087;-78
2022/09/23 11:03:42;;;;;;;2.60;2.03;;;;;;;;;;5041643;28;20282;-78
2022/09/23 11:06:24;;;;;;;2.47;2.17;;;;;;;;;;5041675;28;20053;-77
2022/09/23 11:09:16;;;;;;;3.20;2.90;;;;;;;;;;5035243;28;20138;-79
2022/09/23 11:11:45;;;;;;;2.80;2.58;;;;;;;;;;5036365;28;20033;-78
2022/09/23 11:14:20;;;;;;;2.30;2.10;;;;;;;;;;5040358;28;20029;-78
2022/09/23 11:16:49;;;;;;;3.65;3.20;;;;;;;;;;5039498;28;20083;-79
2022/09/23 11:19:17;;;;;;;2.78;2.33;;;;;;;;;;5036555;28;20087;-78
2022/09/23 11:22:02;;;;;;;2.67;2.00;;;;;;;;;;5039557;28;20492;-79
2022/09/23 11:24:50;;;;;;;2.17;2.00;;;;;;;;;;5038667;28;20441;-78
2022/09/23 11:27:35;;;;;;;2.33;2.13;;;;;;;;;;5035496;28;20033;-78
2022/09/23 11:30:31;;;;;;;3.75;2.70;;;;;;;;;;5038309;28;20570;-80
2022/09/23 11:33:21;;;;;;;6.25;2.95;;;;;;;;;;4994073;28;20184;-79
2022/09/23 11:35:55;;;;;;;5.60;3.03;;;;;;;;;;5033918;28;20036;-76
2022/09/23 11:38:37;;;;;;;3.10;2.80;;;;;;;;;;5020519;28;20437;-78
2022/09/23 11:41:27;;;;;;;3.05;2.75;;;;;;;;;;5035960;28;20041;-77
2022/09/23 11:44:17;;;;;;;2.33;2.13;;;;;;;;;;5034017;28;20045;-78
2022/09/23 11:46:46;;;;;;;3.00;1.90;;;;;;;;;;5022720;28;20464;-78
2022/09/23 11:49:31;;;;;;;2.58;2.15;;;;;;;;;;5040369;28;20034;-77
2022/09/23 11:52:19;;;;;;;2.42;2.22;;;;;;;;;;5043092;28;20108;-79
2022/09/23 11:54:51;;;;;;;1.92;1.73;;;;;;;;;;5009887;28;20044;-77
2022/09/23 11:57:25;;;;;;;2.20;2.00;;;;;;;;;;5050927;28;20108;-77
2022/09/23 11:59:54;;;;;;;2.30;2.10;;;;;;;;;;5022208;28;20485;-76
2022/09/23 12:02:25;;;;;;;2.28;1.95;;;;;;;;;;5012483;28;20048;-75
2022/09/23 12:05:11;;;;;;;2.20;2.00;;;;;;;;;;5012048;28;20058;-78
2022/09/23 12:07:57;;;;;;;2.65;2.10;;;;;;;;;;5012593;28;20066;-76
2022/09/23 12:10:25;;;;;;;2.00;1.80;;;;;;;;;;5019890;28;20029;-78
2022/09/23 12:12:54;;;;;;;2.58;2.10;;;;;;;;;;5032994;28;20036;-78
2022/09/23 12:15:41;;;;;;;2.45;2.25;;;;;;;;;;5032725;28;20443;-78
2022/09/23 12:18:23;;;;;;;2.53;2.30;;;;;;;;;;5027509;28;20033;-78
2022/09/23 12:21:07;;;;;;;1.75;1.58;;;;;;;;;;5018774;28;20112;-78
2022/09/23 12:23:49;;;;;;;2.22;2.03;;;;;;;;;;5032649;28;20453;-77
2022/09/23 12:26:18;;;;;;;2.83;2.00;;;;;;;;;;5028858;28;20396;-79
2022/09/23 12:28:45;;;;;;;2.45;2.10;;;;;;;;;;5023389;28;20088;-78
2022/09/23 12:31:13;;;;;;;2.80;2.42;;;;;;;;;;5035782;28;20038;-79
2022/09/23 12:33:40;;;;;;;3.90;3.25;;;;;;;;;;5031941;28;20436;-79
2022/09/23 12:36:11;;;;;;;3.25;2.15;;;;;;;;;;5030703;28;20025;-78
2022/09/23 12:38:37;;;;;;;2.92;2.60;;;;;;;;;;5056521;28;20033;-79
2022/09/23 12:41:19;;;;;;;2.33;2.13;;;;;;;;;;5043979;28;20040;-79
2022/09/23 12:44:00;;;;;;;3.38;2.60;;;;;;;;;;5035851;28;20049;-79
2022/09/23 12:46:27;;;;;;;2.38;1.98;;;;;;;;;;5035853;28;20048;-77
2022/09/23 12:48:56;;;;;;;2.60;2.35;;;;;;;;;;5034868;28;20036;-77
2022/09/23 12:51:23;;;;;;;4.45;3.10;;;;;;;;;;5034759;28;20057;-77
2022/09/23 12:53:57;;;;;;;3.53;2.58;;;;;;;;;;5030835;28;20038;-78
2022/09/23 12:56:42;;;;;;;3.65;2.58;;;;;;;;;;5041189;28;20056;-77
2022/09/23 12:59:08;;;;;;;;;;;;;;;;;;5040339;28;20034;-76
2022/09/23 13:01:37;;;;;;;2.28;2.03;;;;;;;;;;5033589;28;19909;-78
2022/09/23 13:07:05;;;;;;;2.65;2.45;;;;;;;;;;5055446;28;20064;-79
2022/09/23 13:09:32;;;;;;;2.90;2.70;;;;;;;;;;5043475;28;20109;-78
2022/09/23 13:12:04;;;;;;;3.45;2.30;;;;;;;;;;5035009;28;20033;-78
2022/09/23 13:14:32;;;;;;;2.45;2.20;;;;;;;;;;5035345;28;20033;-79
2022/09/23 13:16:58;;;;;;;2.97;2.33;;;;;;;;;;5033101;28;20037;-79
2022/09/23 13:19:42;;;;;;;2.85;2.60;;;;;;;;;;5024849;28;20036;-78
2022/09/23 13:22:09;;;;;;;;;;;;;;;;;;5033174;28;20083;-79
2022/09/23 13:24:39;;;;;;;2.92;2.13;;;;;;;;;;5034659;28;19905;-78
2022/09/23 13:27:11;;;;;;;2.60;2.40;;;;;;;;;;5032554;28;20025;-81
2022/09/23 13:29:46;;;;;;;2.30;2.10;;;;;;;;;;5034873;28;20108;-77
2022/09/23 13:32:13;;;;;;;3.00;2.42;;;;;;;;;;5034975;28;20087;-80
2022/09/23 13:34:43;;;;;;;2.40;2.15;;;;;;;;;;5049341;28;20032;-79
2022/09/23 13:37:38;;;;;;;2.72;1.90;;;;;;;;;;5021033;28;20080;-78
2022/09/23 13:40:09;;;;;;;2.55;2.35;;;;;;;;;;5002664;28;20063;-77
2022/09/23 13:42:38;;;;;;;4.82;3.42;;;;;;;;;;5031490;28;20041;-79
2022/09/23 13:45:05;;;;;;;2.80;2.60;;;;;;;;;;5033197;28;20037;-78
2022/09/23 13:47:33;;;;;;;2.80;2.47;;;;;;;;;;5034721;28;20121;-78
2022/09/23 13:50:00;;;;;;;3.38;3.05;;;;;;;;;;5034131;28;20108;-77
2022/09/23 13:52:28;;;;;;;2.38;1.95;;;;;;;;;;5035408;28;20052;-77
2022/09/23 13:54:55;;;;;;;2.00;1.80;;;;;;;;;;5035537;28;20041;-78
2022/09/23 13:57:24;;;;;;;3.70;2.28;;;;;;;;;;5035540;28;20038;-80
2022/09/23 13:59:50;;;;;;;2.17;1.95;;;;;;;;;;5034905;28;20041;-79
2022/09/23 14:02:17;;;;;;;2.83;2.17;;;;;;;;;;5035328;28;20129;-79
2022/09/23 14:04:43;;;;;;;2.40;2.20;;;;;;;;;;5035174;28;20041;-79
2022/09/23 14:07:12;;;;;;;2.92;2.35;;;;;;;;;;5034963;28;20040;-78
2022/09/23 14:09:42;;;;;;;2.03;1.75;;;;;;;;;;5024190;28;20033;-79
2022/09/23 14:12:09;;;;;;;3.08;2.38;;;;;;;;;;5015202;28;20037;-78
2022/09/23 14:14:37;;;;;;;2.13;1.90;;;;;;;;;;5015309;28;20045;-78
2022/09/23 14:17:04;;;;;;;1.90;1.75;;;;;;;;;;5015225;28;20038;-80
2022/09/23 14:19:31;;;;;;;4.93;3.78;;;;;;;;;;5024474;28;20033;-80
2022/09/23 14:21:58;;;;;;;6.30;5.05;;;;;;;;;;5034809;28;20034;-77
2022/09/23 14:24:43;;;;;;;2.83;2.38;;;;;;;;;;5034625;28;20042;-79
2022/09/23 14:27:18;;;;;;;5.07;4.20;;;;;;;;;;5033951;28;20049;-79
2022/09/23 14:29:44;;;;;;;;;;;;;;;;;;5021761;28;20092;-78
2022/09/23 14:32:15;;;;;;;5.18;3.65;;;;;;;;;;5014184;28;19909;-78
2022/09/23 14:34:43;;;;;;;10.52;6.68;;;;;;;;;;5027721;28;20381;-79
2022/09/23 14:40:10;;;;;;;2.90;2.60;;;;;;;;;;5033738;28;20392;-79
2022/09/23 14:42:38;;;;;;;2.60;2.35;;;;;;;;;;5031168;28;20041;-80
2022/09/23 14:45:05;;;;;;;1.92;1.83;;;;;;;;;;5032215;28;20040;-78
2022/09/23 14:47:32;;;;;;;2.63;1.95;;;;;;;;;;5033884;28;20025;-79
2022/09/23 14:52:43;;;;;;;;;;;;;;;;;;5023556;28;20065;-76
2022/09/23 14:55:15;;;;;;;3.72;3.30;;;;;;;;;;5013893;28;19913;-79
2022/09/23 14:57:41;;;;;;;5.75;4.65;;;;;;;;;;5013865;28;20085;-79
2022/09/23 15:00:13;;;;;;;2.38;2.00;;;;;;;;;;5013751;28;20117;-78
2022/09/23 15:02:43;;;;;;;2.80;2.05;;;;;;;;;;5022960;28;20447;-78
2022/09/23 15:05:28;;;;;;;2.42;2.05;;;;;;;;;;5032651;28;20037;-80
2022/09/23 15:07:57;;;;;;;2.25;1.60;;;;;;;;;;5033122;28;20029;-79
2022/09/23 15:10:31;;;;;;;3.13;2.17;;;;;;;;;;5033691;28;20478;-80
2022/09/23 15:13:03;;;;;;;4.40;3.53;;;;;;;;;;5031358;28;20428;-80
2022/09/23 15:15:30;;;;;;;3.90;3.00;;;;;;;;;;5033263;28;20477;-80
2022/09/23 15:18:02;;;;;;;5.07;4.57;;;;;;;;;;5033236;28;20112;-79
2022/09/23 15:20:28;;;;;;;3.67;2.50;;;;;;;;;;5033283;28;20041;-80
2022/09/23 15:22:55;;;;;;;4.25;3.30;;;;;;;;;;5031811;28;20033;-81